createdAt,value
2023-11-15T00:04:49.116Z,95551.07
2023-11-15T00:14:53.782Z,95550.75
2023-11-15T00:24:57.087Z,95556.58
2023-11-15T00:35:00.564Z,95562.13
2023-11-15T00:45:06.435Z,95556.40
2023-11-15T00:55:10.503Z,95550.84
2023-11-15T01:05:14.763Z,95539.05
2023-11-15T01:15:20.510Z,95527.00
2023-11-15T01:25:23.777Z,95534.52
2023-11-15T01:35:27.914Z,95545.77
2023-11-15T01:45:32.705Z,95529.25
2023-11-15T01:55:36.601Z,95524.67
2023-11-15T02:05:40.255Z,95533.60
2023-11-15T02:15:43.696Z,95524.58
2023-11-15T02:25:47.753Z,95527.30
2023-11-15T02:35:51.234Z,95522.29
2023-11-15T02:45:54.677Z,95528.75
2023-11-15T02:55:59.359Z,95521.48
2023-11-15T03:06:05.430Z,95510.84
2023-11-15T03:16:08.973Z,95522.19
2023-11-15T03:26:12.826Z,95527.31
2023-11-15T03:36:17.484Z,95541.14
2023-11-15T03:46:21.287Z,95550.61
2023-11-15T03:56:26.364Z,95552.27
2023-11-15T04:06:29.926Z,95541.55
2023-11-15T04:16:33.531Z,95527.48
2023-11-15T04:26:39.077Z,95524.69
2023-11-15T04:36:43.296Z,95519.44
2023-11-15T04:46:47.767Z,95522.29
2023-11-15T04:56:51.246Z,95518.80
2023-11-15T05:06:55.901Z,95524.25
2023-11-15T05:16:59.262Z,95525.11
2023-11-15T05:27:03.130Z,95530.70
2023-11-15T05:37:06.533Z,95531.23
2023-11-15T05:47:09.803Z,95535.66
2023-11-15T05:57:13.521Z,95540.94
2023-11-15T06:07:18.126Z,95552.84
2023-11-15T06:17:21.896Z,95563.09
2023-11-15T06:27:25.228Z,95571.26
2023-11-15T06:37:30.282Z,95578.08
2023-11-15T06:47:33.893Z,95587.35
2023-11-15T06:57:38.976Z,95593.94
2023-11-15T07:07:42.560Z,95610.41
2023-11-15T07:17:46.131Z,95617.26
2023-11-15T07:27:51.180Z,95623.20
2023-11-15T07:37:55.143Z,95622.91
2023-11-15T07:47:58.963Z,95625.78
2023-11-15T07:58:02.492Z,95638.27
2023-11-15T08:08:07.912Z,95642.86
2023-11-15T08:18:12.562Z,95652.19
2023-11-15T08:28:15.886Z,95656.52
2023-11-15T08:38:20.323Z,95671.23
2023-11-15T08:48:24.716Z,95674.00
2023-11-15T08:58:30.817Z,95683.38
2023-11-15T09:08:34.875Z,95701.75
2023-11-15T09:18:39.842Z,95709.70
2023-11-15T09:28:43.412Z,95723.14
2023-11-15T09:38:46.835Z,95751.45
2023-11-15T09:48:59.890Z,95766.67
2023-11-15T09:59:06.723Z,95786.52
2023-11-15T10:09:10.587Z,95796.02
2023-11-15T10:19:30.920Z,95802.92
2023-11-15T10:29:38.651Z,95814.48
2023-11-15T10:39:45.889Z,95825.17
2023-11-15T10:50:01.866Z,95835.92
2023-11-15T11:00:10.659Z,95843.09
2023-11-15T11:10:27.890Z,95848.38
2023-11-15T11:20:37.460Z,95861.54
2023-11-15T11:30:42.228Z,95874.04
2023-11-15T11:40:47.748Z,95886.83
2023-11-15T11:50:56.095Z,95896.55
2023-11-15T12:01:04.811Z,95903.95
2023-11-15T12:11:09.556Z,95922.08
2023-11-15T12:21:14.781Z,95935.34
2023-11-15T12:31:18.322Z,95954.88
2023-11-15T12:41:21.828Z,95953.79
2023-11-15T12:51:25.889Z,95948.61
2023-11-15T13:01:29.438Z,95946.23
2023-11-15T13:11:33.087Z,95948.29
2023-11-15T13:21:36.556Z,95959.73
2023-11-15T13:31:40.078Z,95960.20
2023-11-15T13:41:43.423Z,95967.36
2023-11-15T13:51:47.410Z,95980.22
2023-11-15T14:01:51.029Z,96003.84
2023-11-15T14:11:56.096Z,96024.16
2023-11-15T14:22:00.286Z,96042.33
2023-11-15T14:32:04.440Z,96061.75
2023-11-15T14:42:08.738Z,96073.89
2023-11-15T14:52:12.401Z,96087.60
2023-11-15T15:02:18.807Z,96088.79
2023-11-15T15:12:24.499Z,96092.77
2023-11-15T15:22:28.109Z,96097.93
2023-11-15T15:32:31.894Z,96125.89
2023-11-15T15:42:35.316Z,96145.23
2023-11-15T15:52:39.283Z,96167.40
2023-11-15T16:02:43.550Z,96192.73
2023-11-15T16:12:49.037Z,96221.48
2023-11-15T16:22:53.038Z,96225.97
2023-11-15T16:32:57.114Z,96230.77
2023-11-15T16:43:00.631Z,96233.60
2023-11-15T16:53:04.045Z,96235.58
2023-11-15T17:03:10.408Z,96241.92
2023-11-15T17:13:14.308Z,96253.66
2023-11-15T17:23:18.094Z,96279.73
2023-11-15T17:33:21.463Z,96309.96
2023-11-15T17:43:24.989Z,96336.50
2023-11-15T17:53:28.499Z,96352.02
2023-11-15T18:03:32.642Z,96367.27
2023-11-15T18:13:36.552Z,96376.07
2023-11-15T18:23:39.865Z,96385.15
2023-11-15T18:33:43.835Z,96410.30
2023-11-15T18:43:47.371Z,96426.70
2023-11-15T18:53:51.319Z,96437.17
2023-11-15T19:03:54.904Z,96437.96
2023-11-15T19:13:59.239Z,96439.59
2023-11-15T19:24:03.750Z,96455.73
2023-11-15T19:34:13.608Z,96467.83
2023-11-15T19:44:17.158Z,96471.02
2023-11-15T19:54:22.464Z,96491.82
2023-11-15T20:04:32.875Z,96497.45
2023-11-15T20:14:36.405Z,96504.84
2023-11-15T20:24:40.363Z,96508.86
2023-11-15T20:34:43.908Z,96520.89
2023-11-15T20:44:47.485Z,96527.36
2023-11-15T20:54:52.132Z,96537.84
2023-11-15T21:04:57.104Z,96541.33
2023-11-15T21:15:04.912Z,96544.67
2023-11-15T21:25:15.117Z,96540.84
2023-11-15T21:35:19.603Z,96542.75
2023-11-15T21:45:24.467Z,96550.45
2023-11-15T21:55:27.934Z,96553.78
2023-11-15T22:05:31.809Z,96570.90
2023-11-15T22:15:35.522Z,96586.83
2023-11-15T22:25:39.123Z,96585.61
2023-11-15T22:35:49.708Z,96590.83
2023-11-15T22:45:53.383Z,96587.52
2023-11-15T22:55:56.690Z,96586.46
2023-11-15T23:06:00.628Z,96594.83
2023-11-15T23:16:04.661Z,96595.34
2023-11-15T23:26:11.764Z,96601.48
2023-11-15T23:36:16.819Z,96610.52
2023-11-15T23:46:20.419Z,96617.85
2023-11-15T23:56:23.737Z,96625.55
